createdAt,value
2018-05-19T00:00:08.942Z,37.70
2018-05-19T00:02:37.203Z,42.90
2018-05-19T00:05:05.471Z,50.50
2018-05-19T00:07:33.775Z,45.60
2018-05-19T00:10:02.023Z,44.00
2018-05-19T00:12:30.299Z,50.60
2018-05-19T00:14:59.320Z,37.27
2018-05-19T00:17:27.570Z,34.20
2018-05-19T00:19:55.834Z,37.10
2018-05-19T00:22:24.903Z,42.87
2018-05-19T00:24:53.142Z,40.13
2018-05-19T00:27:21.394Z,38.17
2018-05-19T00:29:49.648Z,37.27
2018-05-19T00:32:18.686Z,40.53
2018-05-19T00:34:46.981Z,35.60
2018-05-19T00:37:15.247Z,31.93
2018-05-19T00:39:43.501Z,41.23
2018-05-19T00:42:11.754Z,39.70
2018-05-19T00:44:40.774Z,34.93
2018-05-19T00:47:09.028Z,50.40
2018-05-19T00:49:38.045Z,41.87
2018-05-19T00:52:06.305Z,34.93
2018-05-19T00:54:46.652Z,40.27
2018-05-19T00:57:15.935Z,39.53
2018-05-19T00:59:44.189Z,38.37
2018-05-19T01:02:12.439Z,34.03
2018-05-19T01:04:40.680Z,41.03
2018-05-19T01:07:09.702Z,43.10
2018-05-19T01:09:37.989Z,38.43
2018-05-19T01:12:06.272Z,45.30
2018-05-19T01:14:34.528Z,51.63
2018-05-19T01:17:02.805Z,32.53
2018-05-19T01:19:31.060Z,40.17
2018-05-19T01:22:00.091Z,38.33
2018-05-19T01:24:28.333Z,34.00
2018-05-19T01:26:56.600Z,45.50
2018-05-19T01:29:25.625Z,58.17
2018-05-19T01:31:53.877Z,42.40
2018-05-19T01:34:22.124Z,36.40
2018-05-19T01:36:51.143Z,32.47
2018-05-19T01:39:20.164Z,58.17
2018-05-19T01:41:48.414Z,36.27
2018-05-19T01:44:16.679Z,32.17
2018-05-19T01:46:45.714Z,44.40
2018-05-19T01:49:13.955Z,41.17
2018-05-19T01:51:42.988Z,39.23
2018-05-19T01:54:11.662Z,34.47
2018-05-19T01:56:39.933Z,39.90
2018-05-19T01:59:08.202Z,45.23
2018-05-19T02:01:36.455Z,43.33
2018-05-19T02:04:05.522Z,37.77
2018-05-19T02:06:33.780Z,37.30
2018-05-19T02:09:02.818Z,39.87
2018-05-19T02:11:31.840Z,48.27
2018-05-19T02:14:00.095Z,39.00
2018-05-19T02:16:29.106Z,47.23
2018-05-19T02:18:57.366Z,34.03
2018-05-19T02:21:26.400Z,41.67
2018-05-19T02:23:54.672Z,31.37
2018-05-19T02:26:22.941Z,39.10
2018-05-19T02:28:51.197Z,38.17
2018-05-19T02:31:19.450Z,48.50
2018-05-19T02:33:47.703Z,46.43
2018-05-19T02:36:15.950Z,42.40
2018-05-19T02:38:44.205Z,44.23
2018-05-19T02:41:12.469Z,51.20
2018-05-19T02:43:41.480Z,42.57
2018-05-19T02:46:09.725Z,49.20
2018-05-19T02:48:38.763Z,49.67
2018-05-19T02:51:07.007Z,40.70
2018-05-19T02:53:36.035Z,51.13
2018-05-19T02:56:04.301Z,34.77
2018-05-19T02:58:32.556Z,32.13
2018-05-19T03:01:00.826Z,35.43
2018-05-19T03:03:29.838Z,42.33
2018-05-19T03:05:58.099Z,39.63
2018-05-19T03:08:26.356Z,47.80
2018-05-19T03:10:55.371Z,39.23
2018-05-19T03:13:23.644Z,50.93
2018-05-19T03:15:51.909Z,54.20
2018-05-19T03:18:20.928Z,36.07
2018-05-19T03:20:49.190Z,44.93
2018-05-19T03:23:17.442Z,35.83
2018-05-19T03:25:46.456Z,49.23
2018-05-19T03:28:15.474Z,42.83
2018-05-19T03:30:43.731Z,41.77
2018-05-19T03:33:12.750Z,46.27
2018-05-19T03:35:41.012Z,43.47
2018-05-19T03:38:09.262Z,40.90
2018-05-19T03:40:38.334Z,43.47
2018-05-19T03:43:06.598Z,50.77
2018-05-19T03:45:35.640Z,34.33
2018-05-19T03:48:03.907Z,60.47
2018-05-19T03:50:32.955Z,41.27
2018-05-19T03:53:01.218Z,53.67
2018-05-19T03:55:29.464Z,47.27
2018-05-19T03:58:09.721Z,42.53
2018-05-19T04:00:50.328Z,43.07
2018-05-19T04:03:18.579Z,43.97
2018-05-19T04:05:47.821Z,41.33
2018-05-19T04:08:16.082Z,35.30
2018-05-19T04:10:44.341Z,49.03
2018-05-19T04:13:12.625Z,36.70
2018-05-19T04:15:40.869Z,42.07
2018-05-19T04:18:09.126Z,30.00
2018-05-19T04:20:38.145Z,35.27
2018-05-19T04:23:06.407Z,40.70
2018-05-19T04:25:35.418Z,38.47
2018-05-19T04:28:03.701Z,34.17
2018-05-19T04:30:31.956Z,33.40
2018-05-19T04:33:00.209Z,28.50
2018-05-19T04:35:29.228Z,44.93
2018-05-19T04:37:57.477Z,32.30
2018-05-19T04:40:26.504Z,35.87
2018-05-19T04:42:54.756Z,34.40
2018-05-19T04:45:23.768Z,39.07
2018-05-19T04:47:52.033Z,30.50
2018-05-19T04:50:21.059Z,37.00
2018-05-19T04:52:49.323Z,27.80
2018-05-19T04:55:17.617Z,32.63
2018-05-19T04:57:45.907Z,32.53
2018-05-19T05:00:14.185Z,26.03
2018-05-19T05:02:42.436Z,35.23
2018-05-19T05:05:10.679Z,33.17
2018-05-19T05:07:39.695Z,40.40
2018-05-19T05:10:07.951Z,29.60
2018-05-19T05:12:36.976Z,39.67
2018-05-19T05:15:05.235Z,38.10
2018-05-19T05:17:33.499Z,39.90
2018-05-19T05:20:01.757Z,41.30
2018-05-19T05:22:30.779Z,36.40
2018-05-19T05:24:59.057Z,36.50
2018-05-19T05:27:27.315Z,42.53
2018-05-19T05:29:56.332Z,27.50
2018-05-19T05:32:24.586Z,30.33
2018-05-19T05:34:53.620Z,24.63
2018-05-19T05:37:21.887Z,27.77
2018-05-19T05:39:50.897Z,27.07
2018-05-19T05:42:19.151Z,33.63
2018-05-19T05:44:47.421Z,36.47
2018-05-19T05:47:15.679Z,23.60
2018-05-19T05:49:43.948Z,29.40
2018-05-19T05:52:12.966Z,25.93
2018-05-19T05:54:41.217Z,32.07
2018-05-19T05:57:10.244Z,31.87
2018-05-19T05:59:38.595Z,34.10
2018-05-19T06:02:06.780Z,32.20
2018-05-19T06:04:35.076Z,26.07
2018-05-19T06:07:03.325Z,22.90
2018-05-19T06:09:32.351Z,27.30
2018-05-19T06:12:00.594Z,27.23
2018-05-19T06:14:28.941Z,25.70
2018-05-19T06:16:57.191Z,30.23
2018-05-19T06:19:25.469Z,27.43
2018-05-19T06:21:53.703Z,31.63
2018-05-19T06:24:22.006Z,29.33
2018-05-19T06:26:50.265Z,32.80
2018-05-19T06:29:18.540Z,27.80
2018-05-19T06:31:46.803Z,25.03
2018-05-19T06:34:15.831Z,34.87
2018-05-19T06:36:44.100Z,26.90
2018-05-19T06:39:12.358Z,33.03
2018-05-19T06:41:41.378Z,31.47
2018-05-19T06:44:09.669Z,27.00
2018-05-19T06:46:37.974Z,24.77
2018-05-19T06:49:07.012Z,37.03
2018-05-19T06:51:35.285Z,26.83
2018-05-19T06:54:03.588Z,34.13
2018-05-19T06:56:31.864Z,24.93
2018-05-19T06:59:00.148Z,26.97
2018-05-19T07:01:28.431Z,28.70
2018-05-19T07:03:56.693Z,38.00
2018-05-19T07:06:24.983Z,34.87
2018-05-19T07:08:53.262Z,36.80
2018-05-19T07:11:21.583Z,34.03
2018-05-19T07:13:49.871Z,29.80
2018-05-19T07:16:18.151Z,34.07
2018-05-19T07:18:46.437Z,27.03
2018-05-19T07:21:14.711Z,35.33
2018-05-19T07:23:42.995Z,33.97
2018-05-19T07:26:11.260Z,22.17
2018-05-19T07:28:39.530Z,32.00
2018-05-19T07:31:07.794Z,34.97
2018-05-19T07:33:36.058Z,30.10
2018-05-19T07:36:05.108Z,36.27
2018-05-19T07:38:33.346Z,30.63
2018-05-19T07:41:01.624Z,32.03
2018-05-19T07:43:29.890Z,34.07
2018-05-19T07:45:58.169Z,29.03
2018-05-19T07:48:26.428Z,29.20
2018-05-19T07:50:55.548Z,36.57
2018-05-19T07:53:26.498Z,33.93
2018-05-19T07:55:54.779Z,34.03
2018-05-19T07:58:23.078Z,33.13
2018-05-19T08:00:51.331Z,37.93
2018-05-19T08:03:19.627Z,28.87
2018-05-19T08:05:48.642Z,27.97
2018-05-19T08:08:16.905Z,30.33
2018-05-19T08:10:45.232Z,34.07
2018-05-19T08:13:13.479Z,29.23
2018-05-19T08:15:42.543Z,25.50
2018-05-19T08:18:10.826Z,25.77
2018-05-19T08:20:39.193Z,30.60
2018-05-19T08:23:07.462Z,27.90
2018-05-19T08:25:35.740Z,26.40
2018-05-19T08:28:04.023Z,27.00
2018-05-19T08:30:33.249Z,21.43
2018-05-19T08:33:01.510Z,28.17
2018-05-19T08:35:29.792Z,21.87
2018-05-19T08:37:58.061Z,21.87
2018-05-19T08:40:26.428Z,28.67
2018-05-19T08:42:54.692Z,25.27
2018-05-19T08:45:22.957Z,40.37
2018-05-19T08:47:51.251Z,25.33
2018-05-19T08:50:19.548Z,25.90
2018-05-19T08:52:47.799Z,26.27
2018-05-19T08:55:16.047Z,29.00
2018-05-19T08:57:44.307Z,17.93
2018-05-19T09:00:13.353Z,15.30
2018-05-19T09:02:41.609Z,26.17
2018-05-19T09:05:09.917Z,18.17
2018-05-19T09:07:38.161Z,19.70
2018-05-19T09:10:06.429Z,32.03
2018-05-19T09:12:34.824Z,22.07
2018-05-19T09:15:03.092Z,18.90
2018-05-19T09:17:31.457Z,19.10
2018-05-19T09:19:59.736Z,27.30
2018-05-19T09:22:28.003Z,20.87
2018-05-19T09:24:56.272Z,20.80
2018-05-19T09:27:24.554Z,27.17
2018-05-19T09:29:52.848Z,26.10
2018-05-19T09:32:21.121Z,19.67
2018-05-19T09:34:49.390Z,20.53
2018-05-19T09:37:18.545Z,28.77
2018-05-19T09:39:46.884Z,23.83
2018-05-19T09:42:15.122Z,20.03
2018-05-19T09:44:43.528Z,24.43
2018-05-19T09:47:11.780Z,18.43
2018-05-19T09:49:40.035Z,18.17
2018-05-19T09:52:09.092Z,20.37
2018-05-19T09:54:37.338Z,22.07
2018-05-19T09:57:05.601Z,25.83
2018-05-19T09:59:33.866Z,19.10
2018-05-19T10:02:02.131Z,18.30
2018-05-19T10:04:31.229Z,20.10
2018-05-19T10:07:00.271Z,30.43
2018-05-19T10:09:28.675Z,18.73
2018-05-19T10:11:56.938Z,20.50
2018-05-19T10:14:25.202Z,19.37
2018-05-19T10:16:53.457Z,25.20
2018-05-19T10:19:22.523Z,16.50
2018-05-19T10:21:51.563Z,16.07
2018-05-19T10:24:19.817Z,26.30
2018-05-19T10:26:48.070Z,21.33
2018-05-19T10:29:16.347Z,24.30
2018-05-19T10:31:44.829Z,23.70
2018-05-19T10:34:13.204Z,30.50
2018-05-19T10:36:41.477Z,12.93
2018-05-19T10:39:10.503Z,29.90
2018-05-19T10:41:38.817Z,18.30
2018-05-19T10:44:07.138Z,17.80
2018-05-19T10:46:35.443Z,21.37
2018-05-19T10:49:03.703Z,27.43
2018-05-19T10:51:31.976Z,18.77
2018-05-19T10:54:00.232Z,23.80
2018-05-19T10:56:30.049Z,19.00
2018-05-19T10:58:59.076Z,17.63
2018-05-19T11:01:27.353Z,25.30
2018-05-19T11:03:55.649Z,21.57
2018-05-19T11:06:23.916Z,21.10
2018-05-19T11:08:52.247Z,20.00
2018-05-19T11:11:21.099Z,21.17
2018-05-19T11:13:49.414Z,23.43
2018-05-19T11:16:17.737Z,30.67
2018-05-19T11:18:46.022Z,27.63
2018-05-19T11:21:14.314Z,22.50
2018-05-19T11:23:42.687Z,21.90
2018-05-19T11:26:10.940Z,14.47
2018-05-19T11:28:39.221Z,16.07
2018-05-19T11:31:07.468Z,24.33
2018-05-19T11:33:35.764Z,23.70
2018-05-19T11:36:04.796Z,29.93
2018-05-19T11:38:33.814Z,31.10
2018-05-19T11:41:02.142Z,22.57
2018-05-19T11:43:30.432Z,24.37
2018-05-19T11:45:58.700Z,19.60
2018-05-19T11:48:27.003Z,22.40
2018-05-19T11:50:56.061Z,21.20
2018-05-19T11:53:24.381Z,21.50
2018-05-19T11:55:52.655Z,20.33
2018-05-19T11:58:21.715Z,17.27
2018-05-19T12:00:49.969Z,18.70
2018-05-19T12:03:18.321Z,22.70
2018-05-19T12:05:47.020Z,20.53
2018-05-19T12:08:15.299Z,23.60
2018-05-19T12:10:43.571Z,24.73
2018-05-19T12:13:12.009Z,29.87
2018-05-19T12:15:41.080Z,22.93
2018-05-19T12:18:09.348Z,30.40
2018-05-19T12:20:37.701Z,22.77
2018-05-19T12:23:06.115Z,23.73
2018-05-19T12:25:35.078Z,29.07
2018-05-19T12:28:03.376Z,39.93
2018-05-19T12:30:31.658Z,26.50
2018-05-19T12:32:59.923Z,19.30
2018-05-19T12:35:28.180Z,14.83
2018-05-19T12:37:56.487Z,18.73
2018-05-19T12:40:24.758Z,21.77
2018-05-19T12:42:53.148Z,27.10
2018-05-19T12:45:21.402Z,22.00
2018-05-19T12:47:49.778Z,19.37
2018-05-19T12:50:18.027Z,26.53
2018-05-19T12:52:46.288Z,23.43
2018-05-19T12:55:14.556Z,31.97
2018-05-19T12:57:42.879Z,24.73
2018-05-19T13:00:11.173Z,22.47
2018-05-19T13:02:39.498Z,23.73
2018-05-19T13:05:08.543Z,30.70
2018-05-19T13:07:36.815Z,16.53
2018-05-19T13:10:05.197Z,27.40
2018-05-19T13:12:33.457Z,32.53
2018-05-19T13:15:01.820Z,19.37
2018-05-19T13:17:30.098Z,21.00
2018-05-19T13:19:58.437Z,22.63
2018-05-19T13:22:27.504Z,22.33
2018-05-19T13:24:55.780Z,26.87
2018-05-19T13:27:24.053Z,23.10
2018-05-19T13:29:52.381Z,26.30
2018-05-19T13:32:20.742Z,19.77
2018-05-19T13:34:49.801Z,28.97
2018-05-19T13:37:18.091Z,21.60
2018-05-19T13:39:47.125Z,26.80
2018-05-19T13:42:15.418Z,24.83
2018-05-19T13:44:43.688Z,23.80
2018-05-19T13:47:11.975Z,25.60
2018-05-19T13:49:40.279Z,24.00
2018-05-19T13:52:08.644Z,19.60
2018-05-19T13:54:37.608Z,23.10
2018-05-19T13:57:05.888Z,18.47
2018-05-19T13:59:34.169Z,25.03
2018-05-19T14:02:02.439Z,25.87
2018-05-19T14:04:30.696Z,19.60
2018-05-19T14:06:58.961Z,30.30
2018-05-19T14:09:28.071Z,16.20
2018-05-19T14:11:56.384Z,25.27
2018-05-19T14:14:24.624Z,19.17
2018-05-19T14:16:52.887Z,22.07
2018-05-19T14:19:22.032Z,21.30
2018-05-19T14:21:50.298Z,25.40
2018-05-19T14:24:19.347Z,18.33
2018-05-19T14:26:48.368Z,28.73
2018-05-19T14:29:16.641Z,16.37
2018-05-19T14:31:44.916Z,18.93
2018-05-19T14:34:13.230Z,13.50
2018-05-19T14:36:41.521Z,22.80
2018-05-19T14:39:09.781Z,17.60
2018-05-19T14:41:38.810Z,14.97
2018-05-19T14:44:07.865Z,15.97
2018-05-19T14:46:36.108Z,20.10
2018-05-19T14:49:04.374Z,17.77
2018-05-19T14:51:32.628Z,23.27
2018-05-19T14:54:01.693Z,18.10
2018-05-19T14:56:30.002Z,23.33
2018-05-19T14:58:59.055Z,22.30
2018-05-19T15:01:27.329Z,15.87
2018-05-19T15:03:55.584Z,23.20
2018-05-19T15:06:23.865Z,22.40
2018-05-19T15:08:52.126Z,19.57
2018-05-19T15:11:20.408Z,24.87
2018-05-19T15:13:48.659Z,23.73
2018-05-19T15:16:17.718Z,27.77
2018-05-19T15:18:46.021Z,24.03
2018-05-19T15:21:15.076Z,14.70
2018-05-19T15:23:43.388Z,15.63
2018-05-19T15:26:11.635Z,14.40
2018-05-19T15:28:39.923Z,16.77
2018-05-19T15:31:08.200Z,21.17
2018-05-19T15:33:36.508Z,20.60
2018-05-19T15:36:04.814Z,17.00
2018-05-19T15:38:33.168Z,24.33
2018-05-19T15:41:01.357Z,19.33
2018-05-19T15:43:29.763Z,20.57
2018-05-19T15:45:58.020Z,18.03
2018-05-19T15:48:26.294Z,15.87
2018-05-19T15:50:54.624Z,21.97
2018-05-19T15:53:23.702Z,17.40
2018-05-19T15:55:52.014Z,20.80
2018-05-19T15:58:20.266Z,22.53
2018-05-19T16:00:48.553Z,16.27
2018-05-19T16:03:17.622Z,12.43
2018-05-19T16:05:45.893Z,24.00
2018-05-19T16:08:14.151Z,17.17
2018-05-19T16:10:42.405Z,19.43
2018-05-19T16:13:11.448Z,17.10
2018-05-19T16:15:39.785Z,18.83
2018-05-19T16:18:08.038Z,22.13
2018-05-19T16:20:37.089Z,16.80
2018-05-19T16:23:05.376Z,25.37
2018-05-19T16:25:33.676Z,22.40
2018-05-19T16:28:02.699Z,20.90
2018-05-19T16:30:30.975Z,17.80
2018-05-19T16:32:59.824Z,17.53
2018-05-19T16:35:28.090Z,15.13
2018-05-19T16:37:56.351Z,18.03
2018-05-19T16:40:24.645Z,25.43
2018-05-19T16:42:53.007Z,20.47
2018-05-19T16:45:21.284Z,24.20
2018-05-19T16:47:49.539Z,21.47
2018-05-19T16:50:17.833Z,21.33
2018-05-19T16:52:46.095Z,15.63
2018-05-19T16:55:14.397Z,14.03
2018-05-19T16:57:42.678Z,20.60
2018-05-19T17:00:10.945Z,14.17
2018-05-19T17:02:39.224Z,17.67
2018-05-19T17:05:07.489Z,27.37
2018-05-19T17:07:35.749Z,21.90
2018-05-19T17:10:04.040Z,20.90
2018-05-19T17:12:32.287Z,18.03
2018-05-19T17:15:00.559Z,26.07
2018-05-19T17:17:28.812Z,16.33
2018-05-19T17:19:57.838Z,19.70
2018-05-19T17:22:26.117Z,24.43
2018-05-19T17:24:54.396Z,20.83
2018-05-19T17:27:23.640Z,26.20
2018-05-19T17:29:51.890Z,19.00
2018-05-19T17:32:20.147Z,23.93
2018-05-19T17:34:48.411Z,18.10
2018-05-19T17:37:16.660Z,15.67
2018-05-19T17:39:45.697Z,26.97
2018-05-19T17:42:13.961Z,16.50
2018-05-19T17:44:42.227Z,23.80
2018-05-19T17:47:10.510Z,14.10
2018-05-19T17:49:38.759Z,19.90
2018-05-19T17:52:07.984Z,15.63
2018-05-19T17:54:36.300Z,18.30
2018-05-19T17:57:04.581Z,21.67
2018-05-19T17:59:32.859Z,20.03
2018-05-19T18:02:02.625Z,20.67
2018-05-19T18:04:30.867Z,20.80
2018-05-19T18:06:59.951Z,21.70
2018-05-19T18:09:28.298Z,27.27
2018-05-19T18:11:56.541Z,16.63
2018-05-19T18:14:24.828Z,21.40
2018-05-19T18:16:53.097Z,20.30
2018-05-19T18:19:21.355Z,21.83
2018-05-19T18:21:50.376Z,16.07
2018-05-19T18:24:18.630Z,16.60
2018-05-19T18:26:46.933Z,19.40
2018-05-19T18:29:15.280Z,18.00
2018-05-19T18:31:43.570Z,16.90
2018-05-19T18:34:11.897Z,22.10
2018-05-19T18:36:40.157Z,21.67
2018-05-19T18:39:08.409Z,20.60
2018-05-19T18:41:36.682Z,25.83
2018-05-19T18:44:04.941Z,15.40
2018-05-19T18:46:33.211Z,15.20
2018-05-19T18:49:01.486Z,32.87
2018-05-19T18:51:34.853Z,14.40
2018-05-19T18:54:03.115Z,18.10
2018-05-19T18:56:31.370Z,26.03
2018-05-19T18:59:00.570Z,25.67
2018-05-19T19:01:28.816Z,28.83
2018-05-19T19:03:57.070Z,20.47
2018-05-19T19:06:26.116Z,23.03
2018-05-19T19:08:54.393Z,24.00
2018-05-19T19:11:22.925Z,19.60
2018-05-19T19:13:52.007Z,16.60
2018-05-19T19:16:20.322Z,23.70
2018-05-19T19:18:48.585Z,23.90
2018-05-19T19:21:16.878Z,23.10
2018-05-19T19:23:45.175Z,20.30
2018-05-19T19:26:13.435Z,21.07
2018-05-19T19:28:41.685Z,27.80
2018-05-19T19:31:09.967Z,19.47
2018-05-19T19:33:38.237Z,27.03
2018-05-19T19:36:07.347Z,20.67
2018-05-19T19:38:35.583Z,24.03
2018-05-19T19:41:03.856Z,21.57
2018-05-19T19:43:32.092Z,18.60
2018-05-19T19:46:00.401Z,18.23
2018-05-19T19:48:28.689Z,23.10
2018-05-19T19:50:56.954Z,22.13
2018-05-19T19:53:25.231Z,18.43
2018-05-19T19:55:53.470Z,21.10
2018-05-19T19:58:21.728Z,20.30
2018-05-19T20:00:49.989Z,20.90
2018-05-19T20:03:19.064Z,20.70
2018-05-19T20:05:47.414Z,18.37
2018-05-19T20:08:15.769Z,21.80
2018-05-19T20:10:44.170Z,21.90
2018-05-19T20:13:12.420Z,26.23
2018-05-19T20:15:40.681Z,23.37
2018-05-19T20:18:08.952Z,25.97
2018-05-19T20:20:37.220Z,28.77
2018-05-19T20:23:06.259Z,17.27
2018-05-19T20:25:34.517Z,21.63
2018-05-19T20:28:02.759Z,18.67
2018-05-19T20:30:31.875Z,14.23
2018-05-19T20:33:00.143Z,23.33
2018-05-19T20:35:29.260Z,17.10
2018-05-19T20:37:57.525Z,20.43
2018-05-19T20:40:25.777Z,19.67
2018-05-19T20:42:54.832Z,21.60
2018-05-19T20:45:23.104Z,22.40
2018-05-19T20:47:51.360Z,18.83
2018-05-19T20:50:19.638Z,26.40
2018-05-19T20:52:47.978Z,17.90
2018-05-19T20:55:17.741Z,22.50
2018-05-19T20:57:45.996Z,20.80
2018-05-19T21:00:14.262Z,26.77
2018-05-19T21:02:42.542Z,17.53
2018-05-19T21:05:10.822Z,24.07
2018-05-19T21:07:39.115Z,23.20
2018-05-19T21:10:07.407Z,18.37
2018-05-19T21:12:35.658Z,21.70
2018-05-19T21:15:03.936Z,31.20
2018-05-19T21:17:32.211Z,26.63
2018-05-19T21:20:00.473Z,29.63
2018-05-19T21:22:28.736Z,20.27
2018-05-19T21:24:57.759Z,19.07
2018-05-19T21:27:26.076Z,22.67
2018-05-19T21:29:54.460Z,21.87
2018-05-19T21:32:23.483Z,21.67
2018-05-19T21:34:52.625Z,21.50
2018-05-19T21:37:20.917Z,18.67
2018-05-19T21:39:49.281Z,21.23
2018-05-19T21:42:17.545Z,25.83
2018-05-19T21:44:46.781Z,21.50
2018-05-19T21:47:15.111Z,19.67
2018-05-19T21:49:43.416Z,21.60
2018-05-19T21:52:11.736Z,26.80
2018-05-19T21:54:40.856Z,25.33
2018-05-19T21:57:09.218Z,21.60
2018-05-19T21:59:38.313Z,23.97
2018-05-19T22:02:08.148Z,20.00
2018-05-19T22:04:36.471Z,27.93
2018-05-19T22:07:05.584Z,20.00
2018-05-19T22:09:34.748Z,26.67
2018-05-19T22:12:03.065Z,21.80
2018-05-19T22:14:32.182Z,25.70
2018-05-19T22:17:00.554Z,32.93
2018-05-19T22:19:28.912Z,20.10
2018-05-19T22:21:58.095Z,21.10
2018-05-19T22:24:26.436Z,18.93
2018-05-19T22:26:54.749Z,20.70
2018-05-19T22:29:23.077Z,25.93
2018-05-19T22:31:51.429Z,27.40
2018-05-19T22:34:20.028Z,30.10
2018-05-19T22:36:48.374Z,24.80
2018-05-19T22:39:17.485Z,31.53
2018-05-19T22:41:45.928Z,26.37
2018-05-19T22:44:14.263Z,25.23
2018-05-19T22:46:42.598Z,26.20
2018-05-19T22:49:10.905Z,29.13
2018-05-19T22:51:39.247Z,36.60
2018-05-19T22:54:07.667Z,24.80
2018-05-19T22:56:36.030Z,21.90
2018-05-19T22:59:05.133Z,36.37
2018-05-19T23:01:33.461Z,28.20
2018-05-19T23:04:01.888Z,24.00
2018-05-19T23:06:31.223Z,27.20
2018-05-19T23:08:59.560Z,26.37
2018-05-19T23:11:28.706Z,30.00
2018-05-19T23:13:57.019Z,27.53
2018-05-19T23:16:25.325Z,27.20
2018-05-19T23:18:53.630Z,24.37
2018-05-19T23:21:21.990Z,24.00
2018-05-19T23:23:50.305Z,28.90
2018-05-19T23:26:18.626Z,26.80
2018-05-19T23:28:47.769Z,37.57
2018-05-19T23:31:16.102Z,27.07
2018-05-19T23:33:45.203Z,32.70
2018-05-19T23:36:13.526Z,29.73
2018-05-19T23:38:41.841Z,36.33
2018-05-19T23:41:10.312Z,35.43
2018-05-19T23:43:38.633Z,27.47
2018-05-19T23:46:06.949Z,26.67
2018-05-19T23:48:35.345Z,33.60
2018-05-19T23:51:03.765Z,32.80
2018-05-19T23:53:32.190Z,28.63
2018-05-19T23:56:00.567Z,38.83
2018-05-19T23:58:29.067Z,36.17
